createdAt,value
2018-03-16T00:02:18.932Z,7.20
2018-03-16T00:04:46.581Z,7.10
2018-03-16T00:07:14.243Z,7.10
2018-03-16T00:09:41.861Z,7.10
2018-03-16T00:12:09.512Z,7.20
2018-03-16T00:14:37.156Z,7.10
2018-03-16T00:17:04.860Z,7.10
2018-03-16T00:19:32.603Z,7.10
2018-03-16T00:22:00.240Z,7.00
2018-03-16T00:24:27.900Z,7.00
2018-03-16T00:26:55.559Z,7.00
2018-03-16T00:29:23.168Z,7.00
2018-03-16T00:31:50.796Z,6.90
2018-03-16T00:34:18.427Z,6.90
2018-03-16T00:36:46.087Z,6.80
2018-03-16T00:39:13.752Z,6.80
2018-03-16T00:41:41.365Z,6.80
2018-03-16T00:44:08.970Z,6.80
2018-03-16T00:46:36.620Z,6.80
2018-03-16T00:49:04.259Z,6.80
2018-03-16T00:51:31.917Z,6.70
2018-03-16T00:53:59.543Z,6.60
2018-03-16T00:56:27.173Z,6.60
2018-03-16T00:58:54.756Z,6.60
2018-03-16T01:01:22.402Z,6.60
2018-03-16T01:03:50.004Z,6.60
2018-03-16T01:06:17.611Z,6.50
2018-03-16T01:08:45.263Z,6.50
2018-03-16T01:11:12.899Z,6.40
2018-03-16T01:13:40.571Z,6.30
2018-03-16T01:16:08.169Z,6.20
2018-03-16T01:18:35.824Z,6.10
2018-03-16T01:21:03.462Z,6.10
2018-03-16T01:23:31.123Z,6.10
2018-03-16T01:25:58.754Z,6.00
2018-03-16T01:28:26.404Z,5.90
2018-03-16T01:30:54.021Z,5.90
2018-03-16T01:33:22.074Z,5.80
2018-03-16T01:35:49.660Z,5.80
2018-03-16T01:38:17.708Z,5.90
2018-03-16T01:40:45.296Z,5.90
2018-03-16T01:43:12.915Z,6.00
2018-03-16T01:45:40.566Z,6.00
2018-03-16T01:48:08.610Z,6.20
2018-03-16T01:50:36.236Z,6.20
2018-03-16T01:53:16.101Z,6.10
2018-03-16T01:55:43.765Z,6.10
2018-03-16T01:58:11.388Z,6.00
2018-03-16T02:00:39.023Z,6.00
2018-03-16T02:03:06.666Z,6.00
2018-03-16T02:05:34.334Z,6.00
2018-03-16T02:08:01.993Z,5.90
2018-03-16T02:10:29.583Z,6.00
2018-03-16T02:12:57.240Z,6.00
2018-03-16T02:15:24.864Z,6.00
2018-03-16T02:17:52.508Z,6.00
2018-03-16T02:20:20.134Z,6.00
2018-03-16T02:22:48.159Z,5.90
2018-03-16T02:25:15.757Z,5.90
2018-03-16T02:27:43.397Z,5.90
2018-03-16T02:30:11.036Z,5.90
2018-03-16T02:32:38.664Z,5.90
2018-03-16T02:35:06.284Z,5.90
2018-03-16T02:37:33.939Z,5.80
2018-03-16T02:40:01.560Z,5.90
2018-03-16T02:42:29.184Z,5.90
2018-03-16T02:44:56.847Z,5.90
2018-03-16T02:47:24.504Z,5.90
2018-03-16T02:49:52.169Z,5.80
2018-03-16T02:52:19.790Z,5.80
2018-03-16T02:54:47.478Z,5.70
2018-03-16T02:57:15.133Z,5.60
2018-03-16T02:59:43.193Z,5.50
2018-03-16T03:02:10.813Z,5.50
2018-03-16T03:04:38.452Z,5.40
2018-03-16T03:07:06.054Z,5.40
2018-03-16T03:09:33.683Z,5.30
2018-03-16T03:12:01.267Z,5.30
2018-03-16T03:14:28.935Z,5.30
2018-03-16T03:16:56.539Z,5.40
2018-03-16T03:19:24.552Z,5.50
2018-03-16T03:21:52.156Z,5.50
2018-03-16T03:24:19.795Z,5.50
2018-03-16T03:26:47.399Z,5.50
2018-03-16T03:29:15.049Z,5.50
2018-03-16T03:31:42.658Z,5.50
2018-03-16T03:34:10.291Z,5.50
2018-03-16T03:36:37.912Z,5.60
2018-03-16T03:39:05.968Z,5.60
2018-03-16T03:41:33.581Z,5.60
2018-03-16T03:44:01.237Z,5.60
2018-03-16T03:46:28.866Z,5.50
2018-03-16T03:48:56.908Z,5.50
2018-03-16T03:51:24.547Z,5.50
2018-03-16T03:53:52.149Z,5.50
2018-03-16T03:56:19.785Z,5.50
2018-03-16T03:58:47.428Z,5.50
2018-03-16T04:01:15.063Z,5.50
2018-03-16T04:03:42.656Z,5.50
2018-03-16T04:06:10.277Z,5.40
2018-03-16T04:08:37.908Z,5.40
2018-03-16T04:11:05.525Z,5.40
2018-03-16T04:13:33.108Z,5.40
2018-03-16T04:16:00.758Z,5.40
2018-03-16T04:18:28.365Z,5.40
2018-03-16T04:20:55.989Z,5.40
2018-03-16T04:23:23.585Z,5.50
2018-03-16T04:25:51.213Z,5.50
2018-03-16T04:28:18.837Z,5.50
2018-03-16T04:30:46.480Z,5.40
2018-03-16T04:33:14.099Z,5.40
2018-03-16T04:35:42.150Z,5.30
2018-03-16T04:38:09.733Z,5.30
2018-03-16T04:40:37.360Z,5.30
2018-03-16T04:43:04.977Z,5.30
2018-03-16T04:45:32.608Z,5.30
2018-03-16T04:48:00.256Z,5.30
2018-03-16T04:50:27.906Z,5.30
2018-03-16T04:52:55.546Z,5.30
2018-03-16T04:55:23.153Z,5.30
2018-03-16T04:57:50.776Z,5.20
2018-03-16T05:00:18.358Z,5.20
2018-03-16T05:02:45.985Z,5.20
2018-03-16T05:05:13.573Z,5.30
2018-03-16T05:07:41.203Z,5.40
2018-03-16T05:10:08.812Z,5.50
2018-03-16T05:12:36.441Z,5.50
2018-03-16T05:15:04.084Z,5.40
2018-03-16T05:17:31.707Z,5.40
2018-03-16T05:20:04.315Z,5.40
2018-03-16T05:22:31.944Z,5.40
2018-03-16T05:24:59.556Z,5.40
2018-03-16T05:27:27.220Z,5.30
2018-03-16T05:29:54.811Z,5.30
2018-03-16T05:32:22.432Z,5.30
2018-03-16T05:34:50.154Z,5.30
2018-03-16T05:37:17.998Z,5.40
2018-03-16T05:39:45.621Z,5.40
2018-03-16T05:42:13.244Z,5.30
2018-03-16T05:44:40.888Z,5.30
2018-03-16T05:47:08.501Z,5.30
2018-03-16T05:49:36.134Z,5.40
2018-03-16T05:52:03.753Z,5.40
2018-03-16T05:54:31.384Z,5.50
2018-03-16T05:56:59.045Z,5.60
2018-03-16T05:59:26.644Z,5.60
2018-03-16T06:01:54.264Z,5.70
2018-03-16T06:04:21.916Z,5.70
2018-03-16T06:06:49.536Z,5.60
2018-03-16T06:09:17.264Z,5.70
2018-03-16T06:11:44.872Z,5.80
2018-03-16T06:14:12.504Z,5.90
2018-03-16T06:16:40.116Z,5.90
2018-03-16T06:19:07.911Z,5.90
2018-03-16T06:21:35.518Z,5.90
2018-03-16T06:24:03.162Z,6.10
2018-03-16T06:26:30.965Z,6.10
2018-03-16T06:28:58.572Z,6.00
2018-03-16T06:31:26.184Z,6.00
2018-03-16T06:33:53.829Z,5.90
2018-03-16T06:36:21.485Z,5.90
2018-03-16T06:38:49.104Z,5.90
2018-03-16T06:41:16.728Z,6.00
2018-03-16T06:43:44.389Z,6.00
2018-03-16T06:46:12.031Z,6.10
2018-03-16T06:48:39.646Z,6.30
2018-03-16T06:51:07.380Z,6.60
2018-03-16T06:53:35.420Z,6.90
2018-03-16T06:56:03.024Z,6.90
2018-03-16T06:58:36.776Z,7.10
2018-03-16T07:01:04.368Z,7.20
2018-03-16T07:03:32.017Z,7.30
2018-03-16T07:05:59.643Z,7.50
2018-03-16T07:08:27.305Z,7.50
2018-03-16T07:10:59.699Z,7.60
2018-03-16T07:13:27.329Z,7.70
2018-03-16T07:15:54.952Z,7.80
2018-03-16T07:18:22.582Z,7.80
2018-03-16T07:20:50.232Z,7.90
2018-03-16T07:23:20.360Z,8.00
2018-03-16T07:25:48.182Z,8.00
2018-03-16T07:28:15.842Z,8.00
2018-03-16T07:30:43.493Z,8.00
2018-03-16T07:33:11.107Z,8.00
2018-03-16T07:35:38.742Z,8.10
2018-03-16T07:38:06.332Z,8.10
2018-03-16T07:40:33.985Z,8.20
2018-03-16T07:43:01.620Z,8.30
2018-03-16T07:45:34.816Z,8.30
2018-03-16T07:48:02.444Z,8.40
2018-03-16T07:50:30.080Z,8.50
2018-03-16T07:52:58.097Z,8.70
2018-03-16T07:55:25.708Z,8.70
2018-03-16T07:57:53.329Z,8.80
2018-03-16T08:00:20.958Z,8.80
2018-03-16T08:02:48.569Z,8.80
2018-03-16T08:05:16.182Z,8.80
2018-03-16T08:07:43.793Z,9.00
2018-03-16T08:10:11.421Z,9.20
2018-03-16T08:12:39.008Z,9.30
2018-03-16T08:15:06.695Z,9.30
2018-03-16T08:17:34.327Z,9.30
2018-03-16T08:20:01.993Z,9.30
2018-03-16T08:22:29.727Z,9.30
2018-03-16T08:24:57.349Z,9.40
2018-03-16T08:27:25.154Z,9.40
2018-03-16T08:30:04.499Z,9.50
2018-03-16T08:32:41.877Z,9.60
2018-03-16T08:35:09.507Z,9.60
2018-03-16T08:37:37.121Z,9.70
2018-03-16T08:40:05.166Z,10.00
2018-03-16T08:42:32.779Z,10.00
2018-03-16T08:45:00.431Z,10.00
2018-03-16T08:47:32.484Z,10.20
2018-03-16T08:50:02.666Z,10.30
2018-03-16T08:52:30.318Z,10.30
2018-03-16T08:54:57.966Z,10.20
2018-03-16T08:57:25.625Z,10.10
2018-03-16T08:59:53.249Z,10.10
2018-03-16T09:02:20.862Z,10.20
2018-03-16T09:07:22.417Z,10.30
2018-03-16T09:09:50.034Z,10.40
2018-03-16T09:12:17.685Z,10.60
2018-03-16T09:14:45.369Z,10.60
2018-03-16T09:17:13.013Z,10.80
2018-03-16T09:19:40.648Z,10.80
2018-03-16T09:22:08.309Z,11.00
2018-03-16T09:24:35.950Z,10.90
2018-03-16T09:27:03.637Z,11.00
2018-03-16T09:29:31.309Z,11.00
2018-03-16T09:31:58.946Z,11.00
2018-03-16T09:34:26.590Z,11.00
2018-03-16T09:36:54.248Z,11.00
2018-03-16T09:39:21.888Z,10.90
2018-03-16T09:41:49.553Z,11.00
2018-03-16T09:44:17.186Z,11.10
2018-03-16T09:46:44.829Z,11.10
2018-03-16T09:49:12.428Z,10.90
2018-03-16T09:51:40.066Z,10.80
2018-03-16T09:54:07.691Z,10.70
2018-03-16T09:56:35.338Z,10.90
2018-03-16T09:59:02.956Z,11.00
2018-03-16T10:01:30.607Z,11.20
2018-03-16T10:03:58.616Z,11.50
2018-03-16T10:06:26.274Z,11.50
2018-03-16T10:08:53.895Z,11.40
2018-03-16T10:11:21.924Z,11.40
2018-03-16T10:13:49.548Z,11.40
2018-03-16T10:16:17.209Z,11.60
2018-03-16T10:18:44.853Z,11.70
2018-03-16T10:21:12.468Z,11.80
2018-03-16T10:23:40.127Z,11.60
2018-03-16T10:26:07.785Z,11.50
2018-03-16T10:28:35.420Z,11.40
2018-03-16T10:31:03.005Z,11.30
2018-03-16T10:33:30.642Z,11.20
2018-03-16T10:35:58.273Z,11.30
2018-03-16T10:38:25.925Z,11.20
2018-03-16T10:40:53.564Z,11.00
2018-03-16T10:43:39.151Z,10.80
2018-03-16T10:46:06.835Z,10.70
2018-03-16T10:48:34.497Z,10.60
2018-03-16T10:51:07.329Z,10.60
2018-03-16T10:53:35.033Z,10.50
2018-03-16T10:56:02.644Z,10.60
2018-03-16T10:58:31.195Z,10.60
2018-03-16T11:00:59.655Z,10.70
2018-03-16T11:03:32.974Z,10.70
2018-03-16T11:06:01.179Z,10.60
2018-03-16T11:08:33.405Z,10.40
2018-03-16T11:11:01.877Z,10.40
2018-03-16T11:13:29.495Z,10.50
2018-03-16T11:15:57.123Z,10.60
2018-03-16T11:18:24.797Z,10.70
2018-03-16T11:20:52.426Z,10.80
2018-03-16T11:23:20.069Z,11.10
2018-03-16T11:25:47.745Z,11.10
2018-03-16T11:28:15.394Z,11.10
2018-03-16T11:30:42.991Z,11.40
2018-03-16T11:33:10.641Z,11.70
2018-03-16T11:35:38.294Z,11.80
2018-03-16T11:38:05.955Z,11.80
2018-03-16T11:40:33.602Z,11.80
2018-03-16T11:43:01.252Z,11.80
2018-03-16T11:45:28.892Z,11.90
2018-03-16T11:48:03.868Z,12.00
2018-03-16T11:50:31.540Z,12.00
2018-03-16T11:52:59.192Z,12.10
2018-03-16T11:55:26.903Z,11.90
2018-03-16T11:57:54.748Z,11.70
2018-03-16T12:00:22.410Z,11.80
2018-03-16T12:02:50.240Z,11.90
2018-03-16T12:05:17.900Z,11.90
2018-03-16T12:07:45.589Z,11.80
2018-03-16T12:10:13.249Z,11.70
2018-03-16T12:12:40.872Z,11.60
2018-03-16T12:15:08.516Z,11.70
2018-03-16T12:17:36.184Z,12.00
2018-03-16T12:20:03.813Z,12.30
2018-03-16T12:22:32.083Z,12.40
2018-03-16T12:24:59.749Z,12.40
2018-03-16T12:27:27.415Z,12.50
2018-03-16T12:29:55.038Z,12.30
2018-03-16T12:32:22.673Z,12.40
2018-03-16T12:34:50.309Z,12.50
2018-03-16T12:37:17.965Z,12.60
2018-03-16T12:39:45.629Z,12.50
2018-03-16T12:42:13.252Z,12.50
2018-03-16T12:44:40.911Z,12.70
2018-03-16T12:47:17.045Z,12.80
2018-03-16T12:49:44.711Z,12.90
2018-03-16T12:52:12.364Z,13.10
2018-03-16T12:54:40.222Z,13.10
2018-03-16T12:57:07.891Z,13.20
2018-03-16T12:59:35.524Z,13.00
2018-03-16T13:02:03.164Z,13.00
2018-03-16T13:04:30.796Z,12.80
2018-03-16T13:06:58.463Z,12.80
2018-03-16T13:09:26.410Z,12.60
2018-03-16T13:11:54.083Z,12.80
2018-03-16T13:14:21.692Z,13.00
2018-03-16T13:16:49.313Z,13.20
2018-03-16T13:19:16.966Z,13.20
2018-03-16T13:21:44.656Z,13.20
2018-03-16T13:24:12.241Z,13.50
2018-03-16T13:26:44.133Z,13.80
2018-03-16T13:29:11.874Z,14.20
2018-03-16T13:31:39.610Z,14.60
2018-03-16T13:34:07.225Z,14.90
2018-03-16T13:36:34.844Z,14.90
2018-03-16T13:39:02.477Z,14.90
2018-03-16T13:41:30.139Z,14.50
2018-03-16T13:43:57.757Z,14.60
2018-03-16T13:46:25.395Z,14.90
2018-03-16T13:48:53.025Z,14.40
2018-03-16T13:51:20.707Z,14.50
2018-03-16T13:53:49.353Z,14.70
2018-03-16T13:56:17.409Z,15.10
2018-03-16T13:58:45.068Z,15.10
2018-03-16T14:01:12.712Z,15.40
2018-03-16T14:03:40.310Z,15.70
2018-03-16T14:06:07.957Z,16.10
2018-03-16T14:08:35.618Z,16.20
2018-03-16T14:11:03.656Z,16.80
2018-03-16T14:13:31.729Z,16.80
2018-03-16T14:15:59.503Z,17.70
2018-03-16T14:18:27.179Z,17.80
2018-03-16T14:20:54.807Z,17.20
2018-03-16T14:23:22.451Z,18.00
2018-03-16T14:25:50.057Z,18.40
2018-03-16T14:28:18.125Z,18.20
2018-03-16T14:30:49.597Z,18.40
2018-03-16T14:33:17.264Z,18.40
2018-03-16T14:35:44.878Z,17.20
2018-03-16T14:38:12.517Z,16.10
2018-03-16T14:40:40.137Z,15.10
2018-03-16T14:43:07.761Z,14.60
2018-03-16T14:45:35.391Z,14.20
2018-03-16T14:48:03.073Z,13.90
2018-03-16T14:50:30.714Z,13.70
2018-03-16T14:52:59.472Z,13.80
2018-03-16T14:55:27.129Z,13.90
2018-03-16T14:57:55.027Z,13.90
2018-03-16T15:00:22.662Z,13.90
2018-03-16T15:02:50.324Z,14.10
2018-03-16T15:05:17.945Z,14.40
2018-03-16T15:07:45.586Z,14.40
2018-03-16T15:10:13.229Z,14.20
2018-03-16T15:12:40.887Z,14.50
2018-03-16T15:15:08.477Z,16.50
2018-03-16T15:17:36.141Z,17.40
2018-03-16T15:20:04.929Z,17.70
2018-03-16T15:22:32.586Z,17.80
2018-03-16T15:25:00.166Z,18.40
2018-03-16T15:27:28.157Z,19.10
2018-03-16T15:29:55.785Z,19.10
2018-03-16T15:32:23.746Z,20.40
2018-03-16T15:34:51.336Z,20.40
2018-03-16T15:37:18.934Z,19.60
2018-03-16T15:39:46.577Z,19.30
2018-03-16T15:42:14.186Z,20.10
2018-03-16T15:44:42.281Z,20.60
2018-03-16T15:47:09.868Z,20.60
2018-03-16T15:49:37.459Z,20.70
2018-03-16T15:52:05.069Z,20.40
2018-03-16T15:54:32.668Z,19.70
2018-03-16T15:57:00.273Z,19.70
2018-03-16T15:59:27.869Z,20.00
2018-03-16T16:01:55.450Z,18.80
2018-03-16T16:04:23.115Z,18.50
2018-03-16T16:06:50.699Z,18.90
2018-03-16T16:09:18.299Z,17.90
2018-03-16T16:11:45.880Z,16.50
2018-03-16T16:14:13.510Z,15.30
2018-03-16T16:16:41.102Z,14.30
2018-03-16T16:19:08.683Z,14.00
2018-03-16T16:21:36.239Z,14.10
2018-03-16T16:24:04.024Z,14.70
2018-03-16T16:26:31.721Z,16.50
2018-03-16T16:28:59.308Z,18.10
2018-03-16T16:31:26.950Z,19.30
2018-03-16T16:33:54.554Z,18.20
2018-03-16T16:36:22.147Z,17.10
2018-03-16T16:38:49.694Z,15.90
2018-03-16T16:41:17.270Z,15.20
2018-03-16T16:43:44.859Z,14.80
2018-03-16T16:46:12.447Z,14.60
2018-03-16T16:48:40.001Z,14.10
2018-03-16T16:51:07.623Z,13.60
2018-03-16T16:53:35.207Z,13.30
2018-03-16T16:56:02.856Z,13.00
2018-03-16T16:58:30.427Z,12.90
2018-03-16T17:00:58.420Z,12.50
2018-03-16T17:03:26.079Z,12.50
2018-03-16T17:05:53.741Z,12.40
2018-03-16T17:08:21.323Z,12.20
2018-03-16T17:10:48.919Z,12.10
2018-03-16T17:13:16.467Z,12.10
2018-03-16T17:15:44.149Z,12.00
2018-03-16T17:18:11.755Z,11.90
2018-03-16T17:20:39.362Z,11.80
2018-03-16T17:23:07.171Z,11.60
2018-03-16T17:25:34.769Z,11.50
2018-03-16T17:28:02.380Z,11.40
2018-03-16T17:30:29.948Z,11.30
2018-03-16T17:32:57.519Z,11.30
2018-03-16T17:35:25.093Z,11.30
2018-03-16T17:37:52.664Z,11.20
2018-03-16T17:40:20.289Z,11.20
2018-03-16T17:42:47.882Z,11.20
2018-03-16T17:45:15.486Z,11.20
2018-03-16T17:47:43.060Z,11.20
2018-03-16T17:50:10.614Z,11.20
2018-03-16T17:52:38.459Z,11.20
2018-03-16T17:55:06.139Z,11.20
2018-03-16T17:57:33.735Z,11.20
2018-03-16T18:00:01.307Z,11.20
2018-03-16T18:02:28.891Z,11.20
2018-03-16T18:04:56.747Z,11.10
2018-03-16T18:07:25.727Z,11.10
2018-03-16T18:09:53.323Z,11.10
2018-03-16T18:12:20.938Z,11.00
2018-03-16T18:14:48.551Z,11.00
2018-03-16T18:17:16.149Z,10.90
2018-03-16T18:19:44.328Z,10.80
2018-03-16T18:22:11.944Z,10.70
2018-03-16T18:24:39.502Z,10.70
2018-03-16T18:27:08.644Z,10.50
2018-03-16T18:29:36.369Z,10.40
2018-03-16T18:32:03.969Z,10.30
2018-03-16T18:34:31.553Z,10.20
2018-03-16T18:36:59.212Z,10.10
2018-03-16T18:39:26.791Z,10.00
2018-03-16T18:41:54.370Z,10.00
2018-03-16T18:44:21.943Z,9.90
2018-03-16T18:46:49.495Z,9.90
2018-03-16T18:49:17.091Z,9.70
2018-03-16T18:51:44.715Z,9.60
2018-03-16T18:54:12.336Z,9.50
2018-03-16T18:56:39.939Z,9.40
2018-03-16T18:59:07.535Z,9.20
2018-03-16T19:01:35.581Z,8.90
2018-03-16T19:04:03.171Z,8.90
2018-03-16T19:06:30.832Z,8.80
2018-03-16T19:08:58.867Z,8.60
2018-03-16T19:11:26.447Z,8.60
2018-03-16T19:13:54.034Z,8.60
2018-03-16T19:16:21.631Z,8.50
2018-03-16T19:18:49.275Z,8.40
2018-03-16T19:21:16.867Z,8.30
2018-03-16T19:23:44.502Z,8.30
2018-03-16T19:26:12.075Z,8.30
2018-03-16T19:28:39.720Z,8.30
2018-03-16T19:31:07.295Z,8.30
2018-03-16T19:33:34.915Z,8.30
2018-03-16T19:36:02.527Z,8.20
2018-03-16T19:38:30.167Z,8.20
2018-03-16T19:40:57.844Z,8.20
2018-03-16T19:43:25.477Z,8.10
2018-03-16T19:45:53.011Z,7.90
2018-03-16T19:48:20.588Z,7.80
2018-03-16T19:50:48.163Z,7.70
2018-03-16T19:53:22.278Z,7.60
2018-03-16T19:55:49.901Z,7.50
2018-03-16T19:58:17.480Z,7.40
2018-03-16T20:00:45.067Z,7.30
2018-03-16T20:03:12.619Z,7.20
2018-03-16T20:05:40.197Z,7.10
2018-03-16T20:08:07.747Z,7.00
2018-03-16T20:10:35.335Z,7.00
2018-03-16T20:13:02.907Z,7.00
2018-03-16T20:15:30.525Z,7.00
2018-03-16T20:17:58.111Z,7.00
2018-03-16T20:20:25.734Z,6.90
2018-03-16T20:22:53.331Z,6.90
2018-03-16T20:25:20.963Z,6.80
2018-03-16T20:27:48.945Z,6.70
2018-03-16T20:30:16.936Z,6.60
2018-03-16T20:32:44.491Z,6.60
2018-03-16T20:35:12.134Z,6.50
2018-03-16T20:37:40.087Z,6.40
2018-03-16T20:40:08.057Z,6.40
2018-03-16T20:42:35.706Z,6.30
2018-03-16T20:45:03.749Z,6.40
2018-03-16T20:47:31.754Z,6.40
2018-03-16T20:49:59.495Z,6.30
2018-03-16T20:52:27.071Z,6.20
2018-03-16T20:54:54.706Z,6.10
2018-03-16T20:57:22.303Z,6.10
2018-03-16T20:59:49.925Z,6.00
2018-03-16T21:02:17.532Z,5.90
2018-03-16T21:04:45.126Z,5.80
2018-03-16T21:07:12.723Z,5.70
2018-03-16T21:09:40.328Z,5.60
2018-03-16T21:12:08.015Z,5.50
2018-03-16T21:14:35.603Z,5.40
2018-03-16T21:17:03.335Z,5.30
2018-03-16T21:19:31.193Z,5.30
2018-03-16T21:21:59.587Z,5.20
2018-03-16T21:24:27.194Z,5.10
2018-03-16T21:26:54.807Z,5.10
2018-03-16T21:29:22.371Z,5.00
2018-03-16T21:31:49.932Z,5.00
2018-03-16T21:34:17.475Z,4.90
2018-03-16T21:36:45.148Z,4.80
2018-03-16T21:39:12.775Z,4.80
2018-03-16T21:41:40.383Z,4.70
2018-03-16T21:44:08.392Z,4.70
2018-03-16T21:46:36.003Z,4.70
2018-03-16T21:49:03.575Z,4.60
2018-03-16T21:51:31.191Z,4.50
2018-03-16T21:53:58.762Z,4.50
2018-03-16T21:56:26.348Z,4.50
2018-03-16T21:58:54.406Z,4.40
2018-03-16T22:01:22.065Z,4.50
2018-03-16T22:03:49.630Z,4.30
2018-03-16T22:06:17.220Z,4.20
2018-03-16T22:08:44.853Z,4.20
2018-03-16T22:11:12.447Z,4.30
2018-03-16T22:13:40.054Z,4.30
2018-03-16T22:16:07.654Z,4.30
2018-03-16T22:18:35.255Z,4.20
2018-03-16T22:21:02.847Z,4.10
2018-03-16T22:23:30.447Z,4.00
2018-03-16T22:25:58.016Z,4.00
2018-03-16T22:28:25.691Z,4.00
2018-03-16T22:30:53.327Z,4.00
2018-03-16T22:33:20.903Z,4.00
2018-03-16T22:35:48.491Z,4.10
2018-03-16T22:38:16.095Z,4.00
2018-03-16T22:40:44.439Z,3.90
2018-03-16T22:43:12.033Z,3.80
2018-03-16T22:45:39.630Z,3.80
2018-03-16T22:48:07.251Z,3.70
2018-03-16T22:50:34.866Z,3.60
2018-03-16T22:53:02.457Z,3.50
2018-03-16T22:55:30.081Z,3.40
2018-03-16T22:57:57.668Z,3.30
2018-03-16T23:00:25.255Z,3.20
2018-03-16T23:02:52.858Z,3.10
2018-03-16T23:05:20.452Z,3.00
2018-03-16T23:07:48.055Z,3.00
2018-03-16T23:10:15.672Z,3.00
2018-03-16T23:12:43.242Z,3.00
2018-03-16T23:15:10.819Z,3.00
2018-03-16T23:17:38.367Z,2.90
2018-03-16T23:20:05.942Z,2.90
2018-03-16T23:22:33.525Z,2.80
2018-03-16T23:25:01.176Z,2.70
2018-03-16T23:27:28.756Z,2.70
2018-03-16T23:29:56.399Z,2.60
2018-03-16T23:32:23.997Z,2.60
2018-03-16T23:34:51.622Z,2.60
2018-03-16T23:37:19.187Z,2.60
2018-03-16T23:39:46.810Z,2.60
2018-03-16T23:42:14.397Z,2.60
2018-03-16T23:44:42.025Z,2.70
2018-03-16T23:47:09.583Z,2.70
2018-03-16T23:49:37.197Z,2.90
2018-03-16T23:52:04.824Z,3.00
2018-03-16T23:54:32.467Z,3.10
2018-03-16T23:57:00.062Z,3.10
2018-03-16T23:59:27.658Z,3.20
